sensor_id;sensor_type;location;lat;lon;timestamp;temperature;humidity
4755;DHT22;2391;47.212;7.542;2023-12-20T00:01:33;6.00;99.90
4755;DHT22;2391;47.212;7.542;2023-12-20T00:04:02;6.00;99.90
4755;DHT22;2391;47.212;7.542;2023-12-20T00:06:30;5.90;99.90
4755;DHT22;2391;47.212;7.542;2023-12-20T00:08:56;5.90;99.90
4755;DHT22;2391;47.212;7.542;2023-12-20T00:11:24;5.90;99.90
4755;DHT22;2391;47.212;7.542;2023-12-20T00:13:49;5.90;99.90
4755;DHT22;2391;47.212;7.542;2023-12-20T00:16:15;6.00;99.90
4755;DHT22;2391;47.212;7.542;2023-12-20T00:18:41;6.00;99.90
4755;DHT22;2391;47.212;7.542;2023-12-20T00:21:06;5.90;99.90
4755;DHT22;2391;47.212;7.542;2023-12-20T00:23:32;5.90;99.90
4755;DHT22;2391;47.212;7.542;2023-12-20T00:25:58;5.80;99.90
4755;DHT22;2391;47.212;7.542;2023-12-20T00:28:24;5.80;99.90
4755;DHT22;2391;47.212;7.542;2023-12-20T00:30:49;5.80;99.90
4755;DHT22;2391;47.212;7.542;2023-12-20T00:33:15;5.80;99.90
4755;DHT22;2391;47.212;7.542;2023-12-20T00:35:41;5.90;99.90
4755;DHT22;2391;47.212;7.542;2023-12-20T00:38:07;5.90;99.90
4755;DHT22;2391;47.212;7.542;2023-12-20T00:40:34;5.90;99.90
4755;DHT22;2391;47.212;7.542;2023-12-20T00:43:00;5.90;99.90
4755;DHT22;2391;47.212;7.542;2023-12-20T00:45:25;5.90;99.90
4755;DHT22;2391;47.212;7.542;2023-12-20T00:47:51;5.90;99.90
4755;DHT22;2391;47.212;7.542;2023-12-20T00:50:17;6.00;99.90
4755;DHT22;2391;47.212;7.542;2023-12-20T00:52:43;5.90;99.90
4755;DHT22;2391;47.212;7.542;2023-12-20T00:55:09;6.00;99.90
4755;DHT22;2391;47.212;7.542;2023-12-20T00:57:34;6.00;99.90
4755;DHT22;2391;47.212;7.542;2023-12-20T01:00:00;6.00;99.90
4755;DHT22;2391;47.212;7.542;2023-12-20T01:02:26;6.00;99.90
4755;DHT22;2391;47.212;7.542;2023-12-20T01:04:52;6.00;99.90
4755;DHT22;2391;47.212;7.542;2023-12-20T01:07:18;6.00;99.90
4755;DHT22;2391;47.212;7.542;2023-12-20T01:09:44;6.00;99.90
4755;DHT22;2391;47.212;7.542;2023-12-20T01:12:10;6.00;99.90
4755;DHT22;2391;47.212;7.542;2023-12-20T01:14:35;5.90;99.90
4755;DHT22;2391;47.212;7.542;2023-12-20T01:17:02;5.90;99.90
4755;DHT22;2391;47.212;7.542;2023-12-20T01:19:27;5.90;99.90
4755;DHT22;2391;47.212;7.542;2023-12-20T01:21:55;5.80;99.90
4755;DHT22;2391;47.212;7.542;2023-12-20T01:24:21;5.80;99.90
4755;DHT22;2391;47.212;7.542;2023-12-20T01:26:47;5.80;99.90
4755;DHT22;2391;47.212;7.542;2023-12-20T01:29:13;5.80;99.90
4755;DHT22;2391;47.212;7.542;2023-12-20T01:31:40;5.70;99.90
4755;DHT22;2391;47.212;7.542;2023-12-20T01:34:06;5.60;99.90
4755;DHT22;2391;47.212;7.542;2023-12-20T01:36:32;5.60;99.90
4755;DHT22;2391;47.212;7.542;2023-12-20T01:38:58;5.60;99.90
4755;DHT22;2391;47.212;7.542;2023-12-20T01:41:23;5.70;99.90
4755;DHT22;2391;47.212;7.542;2023-12-20T01:43:49;5.70;99.90
4755;DHT22;2391;47.212;7.542;2023-12-20T01:46:15;5.80;99.90
4755;DHT22;2391;47.212;7.542;2023-12-20T01:48:42;5.80;99.90
4755;DHT22;2391;47.212;7.542;2023-12-20T01:51:09;5.80;99.90
4755;DHT22;2391;47.212;7.542;2023-12-20T01:53:36;5.90;99.90
4755;DHT22;2391;47.212;7.542;2023-12-20T01:56:02;5.90;99.90
4755;DHT22;2391;47.212;7.542;2023-12-20T01:58:28;5.90;99.90
4755;DHT22;2391;47.212;7.542;2023-12-20T02:00:54;5.90;99.90
4755;DHT22;2391;47.212;7.542;2023-12-20T02:03:21;5.80;99.90
4755;DHT22;2391;47.212;7.542;2023-12-20T02:05:47;5.70;99.90
4755;DHT22;2391;47.212;7.542;2023-12-20T02:08:13;5.70;99.90
4755;DHT22;2391;47.212;7.542;2023-12-20T02:10:39;5.70;99.90
4755;DHT22;2391;47.212;7.542;2023-12-20T02:13:06;5.70;99.90
4755;DHT22;2391;47.212;7.542;2023-12-20T02:15:32;5.80;99.90
4755;DHT22;2391;47.212;7.542;2023-12-20T02:17:59;5.80;99.90
4755;DHT22;2391;47.212;7.542;2023-12-20T02:20:24;5.90;99.90
4755;DHT22;2391;47.212;7.542;2023-12-20T02:22:50;5.90;99.90
4755;DHT22;2391;47.212;7.542;2023-12-20T02:25:16;5.90;99.90
4755;DHT22;2391;47.212;7.542;2023-12-20T02:27:42;5.90;99.90
4755;DHT22;2391;47.212;7.542;2023-12-20T02:30:09;5.90;99.90
4755;DHT22;2391;47.212;7.542;2023-12-20T02:32:35;5.90;99.90
4755;DHT22;2391;47.212;7.542;2023-12-20T02:35:01;5.90;99.90
4755;DHT22;2391;47.212;7.542;2023-12-20T02:37:27;5.80;99.90
4755;DHT22;2391;47.212;7.542;2023-12-20T02:39:52;5.80;99.90
4755;DHT22;2391;47.212;7.542;2023-12-20T02:42:18;5.80;99.90
4755;DHT22;2391;47.212;7.542;2023-12-20T02:44:44;5.90;99.90
4755;DHT22;2391;47.212;7.542;2023-12-20T02:47:10;5.90;99.90
4755;DHT22;2391;47.212;7.542;2023-12-20T02:49:35;6.00;99.90
4755;DHT22;2391;47.212;7.542;2023-12-20T02:52:01;5.90;99.90
4755;DHT22;2391;47.212;7.542;2023-12-20T02:54:27;5.90;99.90
4755;DHT22;2391;47.212;7.542;2023-12-20T02:56:53;5.90;99.90
4755;DHT22;2391;47.212;7.542;2023-12-20T02:59:18;5.90;99.90
4755;DHT22;2391;47.212;7.542;2023-12-20T03:01:45;5.90;99.90
4755;DHT22;2391;47.212;7.542;2023-12-20T03:04:12;5.80;99.90
4755;DHT22;2391;47.212;7.542;2023-12-20T03:06:38;5.80;99.90
4755;DHT22;2391;47.212;7.542;2023-12-20T03:09:04;5.80;99.90
4755;DHT22;2391;47.212;7.542;2023-12-20T03:11:30;5.80;99.90
4755;DHT22;2391;47.212;7.542;2023-12-20T03:13:56;5.90;99.90
4755;DHT22;2391;47.212;7.542;2023-12-20T03:16:23;5.90;99.90
4755;DHT22;2391;47.212;7.542;2023-12-20T03:18:49;5.90;99.90
4755;DHT22;2391;47.212;7.542;2023-12-20T03:21:15;6.00;99.90
4755;DHT22;2391;47.212;7.542;2023-12-20T03:23:41;6.00;99.90
4755;DHT22;2391;47.212;7.542;2023-12-20T03:26:08;6.10;99.90
4755;DHT22;2391;47.212;7.542;2023-12-20T03:28:34;6.20;99.90
4755;DHT22;2391;47.212;7.542;2023-12-20T03:31:01;6.20;99.90
4755;DHT22;2391;47.212;7.542;2023-12-20T03:33:28;6.30;99.90
4755;DHT22;2391;47.212;7.542;2023-12-20T03:35:54;6.40;99.90
4755;DHT22;2391;47.212;7.542;2023-12-20T03:38:21;6.40;99.90
4755;DHT22;2391;47.212;7.542;2023-12-20T03:40:47;6.50;99.90
4755;DHT22;2391;47.212;7.542;2023-12-20T03:43:13;6.40;99.90
4755;DHT22;2391;47.212;7.542;2023-12-20T03:45:38;6.50;99.90
4755;DHT22;2391;47.212;7.542;2023-12-20T03:48:05;6.50;99.90
4755;DHT22;2391;47.212;7.542;2023-12-20T03:50:31;6.40;99.90
4755;DHT22;2391;47.212;7.542;2023-12-20T03:52:57;6.40;99.90
4755;DHT22;2391;47.212;7.542;2023-12-20T03:55:22;6.40;99.90
4755;DHT22;2391;47.212;7.542;2023-12-20T03:57:48;6.40;99.90
4755;DHT22;2391;47.212;7.542;2023-12-20T04:00:14;6.50;99.90
4755;DHT22;2391;47.212;7.542;2023-12-20T04:02:41;6.40;99.90
4755;DHT22;2391;47.212;7.542;2023-12-20T04:05:08;6.40;99.90
4755;DHT22;2391;47.212;7.542;2023-12-20T04:07:35;6.30;99.90
4755;DHT22;2391;47.212;7.542;2023-12-20T04:10:02;6.20;99.90
4755;DHT22;2391;47.212;7.542;2023-12-20T04:12:29;6.20;99.90
4755;DHT22;2391;47.212;7.542;2023-12-20T04:14:56;6.10;99.90
4755;DHT22;2391;47.212;7.542;2023-12-20T04:17:23;6.10;99.90
4755;DHT22;2391;47.212;7.542;2023-12-20T04:19:49;6.10;99.90
4755;DHT22;2391;47.212;7.542;2023-12-20T04:22:15;6.20;99.90
4755;DHT22;2391;47.212;7.542;2023-12-20T04:24:41;6.20;99.90
4755;DHT22;2391;47.212;7.542;2023-12-20T04:27:10;6.20;99.90
4755;DHT22;2391;47.212;7.542;2023-12-20T04:29:36;6.20;99.90
4755;DHT22;2391;47.212;7.542;2023-12-20T04:32:01;6.20;99.90
4755;DHT22;2391;47.212;7.542;2023-12-20T04:34:27;6.20;99.90
4755;DHT22;2391;47.212;7.542;2023-12-20T04:36:54;6.10;99.90
4755;DHT22;2391;47.212;7.542;2023-12-20T04:39:19;6.20;99.90
4755;DHT22;2391;47.212;7.542;2023-12-20T04:41:45;6.20;99.90
4755;DHT22;2391;47.212;7.542;2023-12-20T04:44:13;6.20;99.90
4755;DHT22;2391;47.212;7.542;2023-12-20T04:46:39;6.20;99.90
4755;DHT22;2391;47.212;7.542;2023-12-20T04:49:05;6.20;99.90
4755;DHT22;2391;47.212;7.542;2023-12-20T04:51:33;6.20;99.90
4755;DHT22;2391;47.212;7.542;2023-12-20T04:53:58;6.10;99.90
4755;DHT22;2391;47.212;7.542;2023-12-20T04:56:24;6.10;99.90
4755;DHT22;2391;47.212;7.542;2023-12-20T04:58:50;6.20;99.90
4755;DHT22;2391;47.212;7.542;2023-12-20T05:01:16;6.20;99.90
4755;DHT22;2391;47.212;7.542;2023-12-20T05:03:42;6.30;99.90
4755;DHT22;2391;47.212;7.542;2023-12-20T05:06:09;6.30;99.90
4755;DHT22;2391;47.212;7.542;2023-12-20T05:08:35;6.40;99.90
4755;DHT22;2391;47.212;7.542;2023-12-20T05:11:02;6.40;99.90
4755;DHT22;2391;47.212;7.542;2023-12-20T05:13:28;6.40;99.90
4755;DHT22;2391;47.212;7.542;2023-12-20T05:15:54;6.40;99.90
4755;DHT22;2391;47.212;7.542;2023-12-20T05:18:20;6.40;99.90
4755;DHT22;2391;47.212;7.542;2023-12-20T05:20:46;6.30;99.90
4755;DHT22;2391;47.212;7.542;2023-12-20T05:23:12;6.30;99.90
4755;DHT22;2391;47.212;7.542;2023-12-20T05:25:39;6.20;99.90
4755;DHT22;2391;47.212;7.542;2023-12-20T05:28:05;6.20;99.90
4755;DHT22;2391;47.212;7.542;2023-12-20T05:30:30;6.30;99.90
4755;DHT22;2391;47.212;7.542;2023-12-20T05:32:56;6.30;99.90
4755;DHT22;2391;47.212;7.542;2023-12-20T05:35:22;6.30;99.90
4755;DHT22;2391;47.212;7.542;2023-12-20T05:37:49;6.30;99.90
4755;DHT22;2391;47.212;7.542;2023-12-20T05:40:15;6.30;99.90
4755;DHT22;2391;47.212;7.542;2023-12-20T05:42:41;6.30;99.90
4755;DHT22;2391;47.212;7.542;2023-12-20T05:45:07;6.40;99.90
4755;DHT22;2391;47.212;7.542;2023-12-20T05:47:33;6.50;99.90
4755;DHT22;2391;47.212;7.542;2023-12-20T05:49:59;6.60;99.90
4755;DHT22;2391;47.212;7.542;2023-12-20T05:52:24;6.70;99.90
4755;DHT22;2391;47.212;7.542;2023-12-20T05:54:50;6.80;99.90
4755;DHT22;2391;47.212;7.542;2023-12-20T05:57:16;6.80;99.90
4755;DHT22;2391;47.212;7.542;2023-12-20T05:59:42;6.90;99.90
4755;DHT22;2391;47.212;7.542;2023-12-20T06:02:07;7.00;99.90
4755;DHT22;2391;47.212;7.542;2023-12-20T06:04:33;7.00;99.90
4755;DHT22;2391;47.212;7.542;2023-12-20T06:06:59;7.00;99.90
4755;DHT22;2391;47.212;7.542;2023-12-20T06:09:27;7.00;99.90
4755;DHT22;2391;47.212;7.542;2023-12-20T06:11:52;6.90;99.90
4755;DHT22;2391;47.212;7.542;2023-12-20T06:14:18;6.90;99.90
4755;DHT22;2391;47.212;7.542;2023-12-20T06:16:45;6.80;99.90
4755;DHT22;2391;47.212;7.542;2023-12-20T06:19:11;6.80;99.90
4755;DHT22;2391;47.212;7.542;2023-12-20T06:21:37;6.80;99.90
4755;DHT22;2391;47.212;7.542;2023-12-20T06:24:03;6.80;99.90
4755;DHT22;2391;47.212;7.542;2023-12-20T06:26:29;6.80;99.90
4755;DHT22;2391;47.212;7.542;2023-12-20T06:28:55;6.90;99.90
4755;DHT22;2391;47.212;7.542;2023-12-20T06:31:21;6.90;99.90
4755;DHT22;2391;47.212;7.542;2023-12-20T06:33:47;7.00;99.90
4755;DHT22;2391;47.212;7.542;2023-12-20T06:36:13;7.00;99.90
4755;DHT22;2391;47.212;7.542;2023-12-20T06:38:39;7.10;99.90
4755;DHT22;2391;47.212;7.542;2023-12-20T06:41:06;7.10;99.90
4755;DHT22;2391;47.212;7.542;2023-12-20T06:43:31;7.10;99.90
4755;DHT22;2391;47.212;7.542;2023-12-20T06:46:00;7.10;99.90
4755;DHT22;2391;47.212;7.542;2023-12-20T06:48:26;7.00;99.90
4755;DHT22;2391;47.212;7.542;2023-12-20T06:50:53;7.00;99.90
4755;DHT22;2391;47.212;7.542;2023-12-20T06:53:18;7.00;99.90
4755;DHT22;2391;47.212;7.542;2023-12-20T06:55:44;6.90;99.90
4755;DHT22;2391;47.212;7.542;2023-12-20T06:58:10;6.90;99.90
4755;DHT22;2391;47.212;7.542;2023-12-20T07:00:36;6.90;99.90
4755;DHT22;2391;47.212;7.542;2023-12-20T07:03:02;6.90;99.90
4755;DHT22;2391;47.212;7.542;2023-12-20T07:05:27;7.00;99.90
4755;DHT22;2391;47.212;7.542;2023-12-20T07:07:53;7.00;99.90
4755;DHT22;2391;47.212;7.542;2023-12-20T07:10:19;6.90;99.90
4755;DHT22;2391;47.212;7.542;2023-12-20T07:12:45;6.90;99.90
4755;DHT22;2391;47.212;7.542;2023-12-20T07:15:11;6.90;99.90
4755;DHT22;2391;47.212;7.542;2023-12-20T07:17:37;6.90;99.90
4755;DHT22;2391;47.212;7.542;2023-12-20T07:20:03;6.90;99.90
4755;DHT22;2391;47.212;7.542;2023-12-20T07:22:30;6.90;99.90
4755;DHT22;2391;47.212;7.542;2023-12-20T07:24:59;6.90;99.90
4755;DHT22;2391;47.212;7.542;2023-12-20T07:27:26;7.00;99.90
4755;DHT22;2391;47.212;7.542;2023-12-20T07:29:52;7.00;99.90
4755;DHT22;2391;47.212;7.542;2023-12-20T07:32:18;7.00;99.90
4755;DHT22;2391;47.212;7.542;2023-12-20T07:34:44;7.00;99.90
4755;DHT22;2391;47.212;7.542;2023-12-20T07:37:09;7.00;99.90
4755;DHT22;2391;47.212;7.542;2023-12-20T07:39:41;7.10;99.90
4755;DHT22;2391;47.212;7.542;2023-12-20T07:42:08;7.10;99.90
4755;DHT22;2391;47.212;7.542;2023-12-20T07:44:35;7.00;99.90
4755;DHT22;2391;47.212;7.542;2023-12-20T07:47:04;7.10;99.90
4755;DHT22;2391;47.212;7.542;2023-12-20T07:49:31;7.20;99.90
4755;DHT22;2391;47.212;7.542;2023-12-20T07:51:57;7.20;99.90
4755;DHT22;2391;47.212;7.542;2023-12-20T07:54:23;7.30;99.90
4755;DHT22;2391;47.212;7.542;2023-12-20T07:56:49;7.30;99.90
4755;DHT22;2391;47.212;7.542;2023-12-20T07:59:15;7.40;99.90
4755;DHT22;2391;47.212;7.542;2023-12-20T08:01:41;7.40;99.90
4755;DHT22;2391;47.212;7.542;2023-12-20T08:04:08;7.50;99.90
4755;DHT22;2391;47.212;7.542;2023-12-20T08:06:34;7.60;99.90
4755;DHT22;2391;47.212;7.542;2023-12-20T08:08:59;7.60;99.90
4755;DHT22;2391;47.212;7.542;2023-12-20T08:11:25;7.60;99.90
4755;DHT22;2391;47.212;7.542;2023-12-20T08:13:51;7.50;99.90
4755;DHT22;2391;47.212;7.542;2023-12-20T08:16:16;7.50;99.90
4755;DHT22;2391;47.212;7.542;2023-12-20T08:18:44;7.50;99.90
4755;DHT22;2391;47.212;7.542;2023-12-20T08:21:09;7.50;99.90
4755;DHT22;2391;47.212;7.542;2023-12-20T08:23:35;7.50;99.90
4755;DHT22;2391;47.212;7.542;2023-12-20T08:26:05;7.50;99.90
4755;DHT22;2391;47.212;7.542;2023-12-20T08:28:31;7.50;99.90
4755;DHT22;2391;47.212;7.542;2023-12-20T08:30:57;7.50;99.90
4755;DHT22;2391;47.212;7.542;2023-12-20T08:33:23;7.60;99.90
4755;DHT22;2391;47.212;7.542;2023-12-20T08:35:49;7.60;99.90
4755;DHT22;2391;47.212;7.542;2023-12-20T08:38:14;7.60;99.90
4755;DHT22;2391;47.212;7.542;2023-12-20T08:40:40;7.60;99.90
4755;DHT22;2391;47.212;7.542;2023-12-20T08:43:07;7.60;99.90
4755;DHT22;2391;47.212;7.542;2023-12-20T08:45:32;7.70;99.90
4755;DHT22;2391;47.212;7.542;2023-12-20T08:47:58;7.70;99.90
4755;DHT22;2391;47.212;7.542;2023-12-20T08:50:25;7.80;99.90
4755;DHT22;2391;47.212;7.542;2023-12-20T08:52:51;7.90;99.90
4755;DHT22;2391;47.212;7.542;2023-12-20T08:55:17;7.90;99.90
4755;DHT22;2391;47.212;7.542;2023-12-20T08:57:43;7.90;99.90
4755;DHT22;2391;47.212;7.542;2023-12-20T09:00:10;7.90;99.90
4755;DHT22;2391;47.212;7.542;2023-12-20T09:02:36;7.90;99.90
4755;DHT22;2391;47.212;7.542;2023-12-20T09:05:03;7.90;99.90
4755;DHT22;2391;47.212;7.542;2023-12-20T09:07:29;7.80;99.90
4755;DHT22;2391;47.212;7.542;2023-12-20T09:09:58;7.80;99.90
4755;DHT22;2391;47.212;7.542;2023-12-20T09:12:24;7.80;99.90
4755;DHT22;2391;47.212;7.542;2023-12-20T09:14:51;7.80;99.90
4755;DHT22;2391;47.212;7.542;2023-12-20T09:17:18;7.70;99.90
4755;DHT22;2391;47.212;7.542;2023-12-20T09:19:44;7.60;99.90
4755;DHT22;2391;47.212;7.542;2023-12-20T09:22:11;7.60;99.90
4755;DHT22;2391;47.212;7.542;2023-12-20T09:24:38;7.60;99.90
4755;DHT22;2391;47.212;7.542;2023-12-20T09:27:05;7.60;99.90
4755;DHT22;2391;47.212;7.542;2023-12-20T09:29:31;7.70;99.90
4755;DHT22;2391;47.212;7.542;2023-12-20T09:31:57;7.70;99.90
4755;DHT22;2391;47.212;7.542;2023-12-20T09:34:23;7.70;99.90
4755;DHT22;2391;47.212;7.542;2023-12-20T09:36:49;7.80;99.90
4755;DHT22;2391;47.212;7.542;2023-12-20T09:39:17;7.70;99.90
4755;DHT22;2391;47.212;7.542;2023-12-20T09:42:00;7.80;99.90
4755;DHT22;2391;47.212;7.542;2023-12-20T09:44:26;7.80;99.90
4755;DHT22;2391;47.212;7.542;2023-12-20T09:46:52;7.80;99.90
4755;DHT22;2391;47.212;7.542;2023-12-20T09:49:20;7.90;99.90
4755;DHT22;2391;47.212;7.542;2023-12-20T09:51:47;8.00;99.90
4755;DHT22;2391;47.212;7.542;2023-12-20T09:54:14;8.10;99.90
4755;DHT22;2391;47.212;7.542;2023-12-20T09:56:41;8.10;99.90
4755;DHT22;2391;47.212;7.542;2023-12-20T09:59:07;8.20;99.90
4755;DHT22;2391;47.212;7.542;2023-12-20T10:01:34;8.20;99.90
4755;DHT22;2391;47.212;7.542;2023-12-20T10:04:05;8.30;99.90
4755;DHT22;2391;47.212;7.542;2023-12-20T10:06:32;8.40;99.90
4755;DHT22;2391;47.212;7.542;2023-12-20T10:08:58;8.50;99.90
4755;DHT22;2391;47.212;7.542;2023-12-20T10:11:25;8.60;99.90
4755;DHT22;2391;47.212;7.542;2023-12-20T10:13:50;8.70;99.90
4755;DHT22;2391;47.212;7.542;2023-12-20T10:16:16;8.70;99.90
4755;DHT22;2391;47.212;7.542;2023-12-20T10:18:42;8.80;99.90
4755;DHT22;2391;47.212;7.542;2023-12-20T10:21:07;8.80;99.90
4755;DHT22;2391;47.212;7.542;2023-12-20T10:23:35;8.90;99.90
4755;DHT22;2391;47.212;7.542;2023-12-20T10:26:02;9.00;99.90
4755;DHT22;2391;47.212;7.542;2023-12-20T10:28:32;9.00;99.90
4755;DHT22;2391;47.212;7.542;2023-12-20T10:30:57;9.10;99.90
4755;DHT22;2391;47.212;7.542;2023-12-20T10:33:25;9.00;99.90
4755;DHT22;2391;47.212;7.542;2023-12-20T10:35:52;9.00;99.90
4755;DHT22;2391;47.212;7.542;2023-12-20T10:38:19;9.00;99.90
4755;DHT22;2391;47.212;7.542;2023-12-20T10:40:46;8.90;99.90
4755;DHT22;2391;47.212;7.542;2023-12-20T10:43:12;8.80;99.90
4755;DHT22;2391;47.212;7.542;2023-12-20T10:45:38;8.80;99.90
4755;DHT22;2391;47.212;7.542;2023-12-20T10:48:05;8.80;99.90
4755;DHT22;2391;47.212;7.542;2023-12-20T10:50:31;8.70;99.90
4755;DHT22;2391;47.212;7.542;2023-12-20T10:52:58;8.70;99.90
4755;DHT22;2391;47.212;7.542;2023-12-20T10:55:25;8.70;99.90
4755;DHT22;2391;47.212;7.542;2023-12-20T10:57:51;8.80;99.90
4755;DHT22;2391;47.212;7.542;2023-12-20T11:00:19;8.80;99.90
4755;DHT22;2391;47.212;7.542;2023-12-20T11:02:48;8.90;99.90
4755;DHT22;2391;47.212;7.542;2023-12-20T11:08:11;9.10;99.90
4755;DHT22;2391;47.212;7.542;2023-12-20T11:10:48;9.10;99.90
4755;DHT22;2391;47.212;7.542;2023-12-20T11:15:45;9.20;99.90
4755;DHT22;2391;47.212;7.542;2023-12-20T11:18:11;9.20;99.90
4755;DHT22;2391;47.212;7.542;2023-12-20T11:20:39;9.20;99.90
4755;DHT22;2391;47.212;7.542;2023-12-20T11:23:06;9.20;99.90
4755;DHT22;2391;47.212;7.542;2023-12-20T11:25:52;9.20;99.90
4755;DHT22;2391;47.212;7.542;2023-12-20T11:28:22;9.10;99.90
4755;DHT22;2391;47.212;7.542;2023-12-20T11:30:55;9.20;99.90
4755;DHT22;2391;47.212;7.542;2023-12-20T11:33:23;9.20;99.90
4755;DHT22;2391;47.212;7.542;2023-12-20T11:35:49;9.30;99.90
4755;DHT22;2391;47.212;7.542;2023-12-20T11:38:15;9.30;99.90
4755;DHT22;2391;47.212;7.542;2023-12-20T11:40:42;9.40;99.90
4755;DHT22;2391;47.212;7.542;2023-12-20T11:43:09;9.40;99.90
4755;DHT22;2391;47.212;7.542;2023-12-20T11:45:35;9.40;99.90
4755;DHT22;2391;47.212;7.542;2023-12-20T11:48:02;9.50;99.90
4755;DHT22;2391;47.212;7.542;2023-12-20T11:50:28;9.40;99.90
4755;DHT22;2391;47.212;7.542;2023-12-20T11:52:57;9.50;99.70
4755;DHT22;2391;47.212;7.542;2023-12-20T11:55:23;9.40;99.20
4755;DHT22;2391;47.212;7.542;2023-12-20T11:57:50;9.40;99.60
4755;DHT22;2391;47.212;7.542;2023-12-20T12:00:17;9.50;99.60
4755;DHT22;2391;47.212;7.542;2023-12-20T12:03:06;9.40;99.00
4755;DHT22;2391;47.212;7.542;2023-12-20T12:05:13;9.40;98.90
4755;DHT22;2391;47.212;7.542;2023-12-20T12:07:38;9.30;98.80
4755;DHT22;2391;47.212;7.542;2023-12-20T12:10:05;9.20;98.90
4755;DHT22;2391;47.212;7.542;2023-12-20T12:12:31;9.10;99.20
4755;DHT22;2391;47.212;7.542;2023-12-20T12:14:58;9.20;99.00
4755;DHT22;2391;47.212;7.542;2023-12-20T12:17:24;9.20;99.00
4755;DHT22;2391;47.212;7.542;2023-12-20T12:20:01;9.20;99.10
4755;DHT22;2391;47.212;7.542;2023-12-20T12:22:20;9.20;98.60
4755;DHT22;2391;47.212;7.542;2023-12-20T12:24:48;9.20;98.70
4755;DHT22;2391;47.212;7.542;2023-12-20T12:27:15;9.10;98.20
4755;DHT22;2391;47.212;7.542;2023-12-20T12:30:02;9.10;98.60
4755;DHT22;2391;47.212;7.542;2023-12-20T12:32:29;9.10;98.30
4755;DHT22;2391;47.212;7.542;2023-12-20T12:34:55;9.20;98.10
4755;DHT22;2391;47.212;7.542;2023-12-20T12:37:22;9.20;97.80
4755;DHT22;2391;47.212;7.542;2023-12-20T12:39:49;9.20;98.10
4755;DHT22;2391;47.212;7.542;2023-12-20T12:42:15;9.20;97.60
4755;DHT22;2391;47.212;7.542;2023-12-20T12:44:41;9.10;96.60
4755;DHT22;2391;47.212;7.542;2023-12-20T12:47:07;9.10;96.70
4755;DHT22;2391;47.212;7.542;2023-12-20T12:49:33;9.00;96.20
4755;DHT22;2391;47.212;7.542;2023-12-20T12:51:59;9.00;96.00
4755;DHT22;2391;47.212;7.542;2023-12-20T12:54:25;9.00;96.30
4755;DHT22;2391;47.212;7.542;2023-12-20T12:56:51;8.90;95.80
4755;DHT22;2391;47.212;7.542;2023-12-20T12:59:18;8.90;95.60
4755;DHT22;2391;47.212;7.542;2023-12-20T13:01:44;8.90;95.90
4755;DHT22;2391;47.212;7.542;2023-12-20T13:04:10;8.90;96.00
4755;DHT22;2391;47.212;7.542;2023-12-20T13:06:37;8.90;95.30
4755;DHT22;2391;47.212;7.542;2023-12-20T13:09:03;8.80;95.80
4755;DHT22;2391;47.212;7.542;2023-12-20T13:11:30;8.80;95.30
4755;DHT22;2391;47.212;7.542;2023-12-20T13:13:57;8.70;95.40
4755;DHT22;2391;47.212;7.542;2023-12-20T13:16:24;8.80;94.60
4755;DHT22;2391;47.212;7.542;2023-12-20T13:18:50;8.70;94.80
4755;DHT22;2391;47.212;7.542;2023-12-20T13:21:16;8.70;94.60
4755;DHT22;2391;47.212;7.542;2023-12-20T13:23:42;8.60;94.50
4755;DHT22;2391;47.212;7.542;2023-12-20T13:26:08;8.60;94.00
4755;DHT22;2391;47.212;7.542;2023-12-20T13:28:34;8.50;94.00
4755;DHT22;2391;47.212;7.542;2023-12-20T13:31:00;8.40;94.10
4755;DHT22;2391;47.212;7.542;2023-12-20T13:33:25;8.40;94.00
4755;DHT22;2391;47.212;7.542;2023-12-20T13:35:51;8.30;93.90
4755;DHT22;2391;47.212;7.542;2023-12-20T13:38:17;8.20;93.60
4755;DHT22;2391;47.212;7.542;2023-12-20T13:40:43;8.10;93.30
4755;DHT22;2391;47.212;7.542;2023-12-20T13:43:09;8.00;93.50
4755;DHT22;2391;47.212;7.542;2023-12-20T13:45:36;7.90;93.30
4755;DHT22;2391;47.212;7.542;2023-12-20T13:48:02;7.80;93.80
4755;DHT22;2391;47.212;7.542;2023-12-20T13:50:28;7.90;93.30
4755;DHT22;2391;47.212;7.542;2023-12-20T13:52:54;7.90;92.80
4755;DHT22;2391;47.212;7.542;2023-12-20T13:55:20;8.00;93.20
4755;DHT22;2391;47.212;7.542;2023-12-20T13:57:48;8.10;92.30
4755;DHT22;2391;47.212;7.542;2023-12-20T14:00:14;8.20;92.50
4755;DHT22;2391;47.212;7.542;2023-12-20T14:02:41;8.10;92.00
4755;DHT22;2391;47.212;7.542;2023-12-20T14:05:09;8.10;92.50
4755;DHT22;2391;47.212;7.542;2023-12-20T14:07:36;8.20;92.20
4755;DHT22;2391;47.212;7.542;2023-12-20T14:10:02;8.20;92.10
4755;DHT22;2391;47.212;7.542;2023-12-20T14:12:28;8.20;91.70
4755;DHT22;2391;47.212;7.542;2023-12-20T14:14:54;8.20;91.70
4755;DHT22;2391;47.212;7.542;2023-12-20T14:17:22;8.20;91.10
4755;DHT22;2391;47.212;7.542;2023-12-20T14:19:47;8.20;91.70
4755;DHT22;2391;47.212;7.542;2023-12-20T14:22:13;8.30;91.50
4755;DHT22;2391;47.212;7.542;2023-12-20T14:24:41;8.30;91.90
4755;DHT22;2391;47.212;7.542;2023-12-20T14:27:07;8.40;91.90
4755;DHT22;2391;47.212;7.542;2023-12-20T14:29:34;8.30;92.10
4755;DHT22;2391;47.212;7.542;2023-12-20T14:32:00;8.40;92.20
4755;DHT22;2391;47.212;7.542;2023-12-20T14:34:28;8.40;92.20
4755;DHT22;2391;47.212;7.542;2023-12-20T14:36:54;8.50;92.40
4755;DHT22;2391;47.212;7.542;2023-12-20T14:39:20;8.60;92.50
4755;DHT22;2391;47.212;7.542;2023-12-20T14:41:45;8.60;92.40
4755;DHT22;2391;47.212;7.542;2023-12-20T14:44:11;8.70;92.40
4755;DHT22;2391;47.212;7.542;2023-12-20T14:46:37;8.70;92.40
4755;DHT22;2391;47.212;7.542;2023-12-20T14:49:05;8.90;92.30
4755;DHT22;2391;47.212;7.542;2023-12-20T14:51:31;8.80;91.90
4755;DHT22;2391;47.212;7.542;2023-12-20T14:53:56;8.80;92.00
4755;DHT22;2391;47.212;7.542;2023-12-20T14:56:24;8.80;91.70
4755;DHT22;2391;47.212;7.542;2023-12-20T14:58:52;8.80;91.40
4755;DHT22;2391;47.212;7.542;2023-12-20T15:01:18;8.80;91.30
4755;DHT22;2391;47.212;7.542;2023-12-20T15:03:48;8.70;91.20
4755;DHT22;2391;47.212;7.542;2023-12-20T15:06:14;8.60;91.10
4755;DHT22;2391;47.212;7.542;2023-12-20T15:08:40;8.50;91.30
4755;DHT22;2391;47.212;7.542;2023-12-20T15:11:05;8.40;91.40
4755;DHT22;2391;47.212;7.542;2023-12-20T15:13:31;8.30;90.80
4755;DHT22;2391;47.212;7.542;2023-12-20T15:15:58;8.20;90.80
4755;DHT22;2391;47.212;7.542;2023-12-20T15:18:24;8.10;90.70
4755;DHT22;2391;47.212;7.542;2023-12-20T15:20:49;8.10;91.20
4755;DHT22;2391;47.212;7.542;2023-12-20T15:23:16;8.20;90.70
4755;DHT22;2391;47.212;7.542;2023-12-20T15:25:42;8.30;91.00
4755;DHT22;2391;47.212;7.542;2023-12-20T15:28:08;8.40;90.90
4755;DHT22;2391;47.212;7.542;2023-12-20T15:30:33;8.30;89.20
4755;DHT22;2391;47.212;7.542;2023-12-20T15:32:59;8.20;90.30
4755;DHT22;2391;47.212;7.542;2023-12-20T15:35:25;8.10;90.10
4755;DHT22;2391;47.212;7.542;2023-12-20T15:37:51;8.10;90.40
4755;DHT22;2391;47.212;7.542;2023-12-20T15:40:17;8.10;90.50
4755;DHT22;2391;47.212;7.542;2023-12-20T15:42:43;8.10;90.80
4755;DHT22;2391;47.212;7.542;2023-12-20T15:45:09;8.10;90.30
4755;DHT22;2391;47.212;7.542;2023-12-20T15:47:35;8.10;90.20
4755;DHT22;2391;47.212;7.542;2023-12-20T15:50:05;7.90;90.00
4755;DHT22;2391;47.212;7.542;2023-12-20T15:52:32;7.80;90.60
4755;DHT22;2391;47.212;7.542;2023-12-20T15:54:58;7.70;90.90
4755;DHT22;2391;47.212;7.542;2023-12-20T15:57:23;7.70;91.10
4755;DHT22;2391;47.212;7.542;2023-12-20T15:59:49;7.80;90.90
4755;DHT22;2391;47.212;7.542;2023-12-20T16:02:18;7.80;90.90
4755;DHT22;2391;47.212;7.542;2023-12-20T16:04:43;7.70;90.90
4755;DHT22;2391;47.212;7.542;2023-12-20T16:07:09;7.60;90.70
4755;DHT22;2391;47.212;7.542;2023-12-20T16:09:35;7.50;91.20
4755;DHT22;2391;47.212;7.542;2023-12-20T16:12:01;7.40;91.70
4755;DHT22;2391;47.212;7.542;2023-12-20T16:14:27;7.50;91.70
4755;DHT22;2391;47.212;7.542;2023-12-20T16:16:55;7.40;91.60